sensor_id;sensor_type;location;lat;lon;timestamp;P1;durP1;ratioP1;P2;durP2;ratioP2
23680;SDS011;62915;50.832;4.462;2023-07-13T00:00:26;5.15;;;1.75;;
23680;SDS011;62915;50.832;4.462;2023-07-13T00:02:52;14.32;;;1.88;;
23680;SDS011;62915;50.832;4.462;2023-07-13T00:05:21;5.78;;;1.77;;
23680;SDS011;62915;50.832;4.462;2023-07-13T00:07:48;8.30;;;1.92;;
23680;SDS011;62915;50.832;4.462;2023-07-13T00:10:15;6.82;;;2.13;;
23680;SDS011;62915;50.832;4.462;2023-07-13T00:12:42;11.23;;;2.05;;
23680;SDS011;62915;50.832;4.462;2023-07-13T00:15:13;9.85;;;2.08;;
23680;SDS011;62915;50.832;4.462;2023-07-13T00:17:48;13.95;;;2.17;;
23680;SDS011;62915;50.832;4.462;2023-07-13T00:20:14;9.00;;;2.40;;
23680;SDS011;62915;50.832;4.462;2023-07-13T00:22:40;7.13;;;2.33;;
23680;SDS011;62915;50.832;4.462;2023-07-13T00:25:10;7.38;;;2.08;;
23680;SDS011;62915;50.832;4.462;2023-07-13T00:27:36;10.07;;;2.22;;
23680;SDS011;62915;50.832;4.462;2023-07-13T00:30:02;10.80;;;2.60;;
23680;SDS011;62915;50.832;4.462;2023-07-13T00:32:29;9.15;;;1.80;;
23680;SDS011;62915;50.832;4.462;2023-07-13T00:34:55;7.72;;;1.67;;
23680;SDS011;62915;50.832;4.462;2023-07-13T00:37:22;9.88;;;1.80;;
23680;SDS011;62915;50.832;4.462;2023-07-13T00:39:48;8.63;;;1.75;;
23680;SDS011;62915;50.832;4.462;2023-07-13T00:42:14;6.40;;;2.42;;
23680;SDS011;62915;50.832;4.462;2023-07-13T00:44:40;5.55;;;2.30;;
23680;SDS011;62915;50.832;4.462;2023-07-13T00:47:06;8.98;;;2.83;;
23680;SDS011;62915;50.832;4.462;2023-07-13T00:49:32;7.18;;;2.13;;
23680;SDS011;62915;50.832;4.462;2023-07-13T00:52:04;11.93;;;2.72;;
23680;SDS011;62915;50.832;4.462;2023-07-13T00:54:34;10.07;;;2.40;;
23680;SDS011;62915;50.832;4.462;2023-07-13T00:57:06;9.38;;;2.30;;
23680;SDS011;62915;50.832;4.462;2023-07-13T00:59:36;9.93;;;2.00;;
23680;SDS011;62915;50.832;4.462;2023-07-13T01:02:05;7.50;;;2.33;;
23680;SDS011;62915;50.832;4.462;2023-07-13T01:04:30;5.88;;;1.60;;
23680;SDS011;62915;50.832;4.462;2023-07-13T01:06:57;8.75;;;1.92;;
23680;SDS011;62915;50.832;4.462;2023-07-13T01:09:23;6.82;;;2.50;;
23680;SDS011;62915;50.832;4.462;2023-07-13T01:11:50;10.30;;;2.78;;
23680;SDS011;62915;50.832;4.462;2023-07-13T01:14:16;7.90;;;2.30;;
23680;SDS011;62915;50.832;4.462;2023-07-13T01:16:44;11.82;;;2.67;;
23680;SDS011;62915;50.832;4.462;2023-07-13T01:21:55;8.35;;;2.13;;
23680;SDS011;62915;50.832;4.462;2023-07-13T01:24:20;8.27;;;2.03;;
23680;SDS011;62915;50.832;4.462;2023-07-13T01:26:46;9.40;;;2.50;;
23680;SDS011;62915;50.832;4.462;2023-07-13T01:29:12;13.55;;;2.63;;
23680;SDS011;62915;50.832;4.462;2023-07-13T01:31:38;10.80;;;1.92;;
23680;SDS011;62915;50.832;4.462;2023-07-13T01:34:03;7.20;;;2.10;;
23680;SDS011;62915;50.832;4.462;2023-07-13T01:36:30;9.75;;;2.35;;
23680;SDS011;62915;50.832;4.462;2023-07-13T01:38:56;7.10;;;2.20;;
23680;SDS011;62915;50.832;4.462;2023-07-13T01:41:21;9.35;;;2.15;;
23680;SDS011;62915;50.832;4.462;2023-07-13T01:43:47;6.30;;;2.60;;
23680;SDS011;62915;50.832;4.462;2023-07-13T01:46:13;10.13;;;2.30;;
23680;SDS011;62915;50.832;4.462;2023-07-13T01:48:39;12.65;;;2.80;;
23680;SDS011;62915;50.832;4.462;2023-07-13T01:51:04;12.27;;;2.90;;
23680;SDS011;62915;50.832;4.462;2023-07-13T01:53:30;6.30;;;1.92;;
23680;SDS011;62915;50.832;4.462;2023-07-13T01:55:56;11.00;;;2.35;;
23680;SDS011;62915;50.832;4.462;2023-07-13T01:58:21;8.68;;;2.53;;
23680;SDS011;62915;50.832;4.462;2023-07-13T02:00:49;10.88;;;2.28;;
23680;SDS011;62915;50.832;4.462;2023-07-13T02:03:15;14.50;;;2.72;;
23680;SDS011;62915;50.832;4.462;2023-07-13T02:05:43;12.90;;;2.83;;
23680;SDS011;62915;50.832;4.462;2023-07-13T02:08:09;12.02;;;2.22;;
23680;SDS011;62915;50.832;4.462;2023-07-13T02:10:36;10.77;;;2.55;;
23680;SDS011;62915;50.832;4.462;2023-07-13T02:13:04;6.88;;;2.17;;
23680;SDS011;62915;50.832;4.462;2023-07-13T02:15:31;8.70;;;2.38;;
23680;SDS011;62915;50.832;4.462;2023-07-13T02:17:57;13.63;;;2.42;;
23680;SDS011;62915;50.832;4.462;2023-07-13T02:20:23;6.03;;;1.98;;
23680;SDS011;62915;50.832;4.462;2023-07-13T02:22:52;8.23;;;2.20;;
23680;SDS011;62915;50.832;4.462;2023-07-13T02:25:18;12.73;;;2.55;;
23680;SDS011;62915;50.832;4.462;2023-07-13T02:27:44;12.68;;;2.80;;
23680;SDS011;62915;50.832;4.462;2023-07-13T02:30:11;10.20;;;2.90;;
23680;SDS011;62915;50.832;4.462;2023-07-13T02:32:40;8.88;;;2.50;;
23680;SDS011;62915;50.832;4.462;2023-07-13T02:35:05;7.78;;;2.50;;
23680;SDS011;62915;50.832;4.462;2023-07-13T02:37:31;14.27;;;3.60;;
23680;SDS011;62915;50.832;4.462;2023-07-13T02:39:57;8.35;;;2.67;;
23680;SDS011;62915;50.832;4.462;2023-07-13T02:42:24;8.40;;;2.60;;
23680;SDS011;62915;50.832;4.462;2023-07-13T02:44:50;10.18;;;2.58;;
23680;SDS011;62915;50.832;4.462;2023-07-13T02:47:16;13.43;;;3.35;;
23680;SDS011;62915;50.832;4.462;2023-07-13T02:49:42;8.93;;;2.80;;
23680;SDS011;62915;50.832;4.462;2023-07-13T02:52:09;7.90;;;2.38;;
23680;SDS011;62915;50.832;4.462;2023-07-13T02:54:34;12.20;;;2.95;;
23680;SDS011;62915;50.832;4.462;2023-07-13T02:57:03;12.27;;;2.63;;
23680;SDS011;62915;50.832;4.462;2023-07-13T02:59:29;8.85;;;2.63;;
23680;SDS011;62915;50.832;4.462;2023-07-13T03:01:55;11.07;;;3.33;;
23680;SDS011;62915;50.832;4.462;2023-07-13T03:04:22;11.98;;;3.42;;
23680;SDS011;62915;50.832;4.462;2023-07-13T03:06:48;11.43;;;2.80;;
23680;SDS011;62915;50.832;4.462;2023-07-13T03:09:14;12.80;;;3.40;;
23680;SDS011;62915;50.832;4.462;2023-07-13T03:11:40;15.13;;;3.10;;
23680;SDS011;62915;50.832;4.462;2023-07-13T03:14:07;8.85;;;3.03;;
23680;SDS011;62915;50.832;4.462;2023-07-13T03:16:33;11.43;;;3.13;;
23680;SDS011;62915;50.832;4.462;2023-07-13T03:18:59;9.65;;;2.53;;
23680;SDS011;62915;50.832;4.462;2023-07-13T03:21:31;12.20;;;2.90;;
23680;SDS011;62915;50.832;4.462;2023-07-13T03:23:56;8.88;;;3.42;;
23680;SDS011;62915;50.832;4.462;2023-07-13T03:26:22;11.27;;;2.38;;
23680;SDS011;62915;50.832;4.462;2023-07-13T03:28:48;10.10;;;3.42;;
23680;SDS011;62915;50.832;4.462;2023-07-13T03:31:21;9.48;;;2.92;;
23680;SDS011;62915;50.832;4.462;2023-07-13T03:33:53;14.52;;;3.17;;
23680;SDS011;62915;50.832;4.462;2023-07-13T03:36:23;10.93;;;2.88;;
23680;SDS011;62915;50.832;4.462;2023-07-13T03:38:51;11.80;;;3.03;;
23680;SDS011;62915;50.832;4.462;2023-07-13T03:41:20;11.40;;;2.50;;
23680;SDS011;62915;50.832;4.462;2023-07-13T03:43:48;10.13;;;2.47;;
23680;SDS011;62915;50.832;4.462;2023-07-13T03:46:15;11.88;;;3.13;;
23680;SDS011;62915;50.832;4.462;2023-07-13T03:48:43;11.52;;;3.42;;
23680;SDS011;62915;50.832;4.462;2023-07-13T03:51:10;13.25;;;3.25;;
23680;SDS011;62915;50.832;4.462;2023-07-13T03:53:40;11.68;;;3.10;;
23680;SDS011;62915;50.832;4.462;2023-07-13T03:56:07;13.60;;;3.00;;
23680;SDS011;62915;50.832;4.462;2023-07-13T03:58:35;14.30;;;3.10;;
23680;SDS011;62915;50.832;4.462;2023-07-13T04:01:06;13.40;;;2.92;;
23680;SDS011;62915;50.832;4.462;2023-07-13T04:03:33;13.27;;;2.85;;
23680;SDS011;62915;50.832;4.462;2023-07-13T04:06:01;11.40;;;3.00;;
23680;SDS011;62915;50.832;4.462;2023-07-13T04:08:29;8.73;;;2.80;;
23680;SDS011;62915;50.832;4.462;2023-07-13T04:10:56;11.82;;;3.25;;
23680;SDS011;62915;50.832;4.462;2023-07-13T04:13:23;10.20;;;2.92;;
23680;SDS011;62915;50.832;4.462;2023-07-13T04:15:51;17.58;;;3.05;;
23680;SDS011;62915;50.832;4.462;2023-07-13T04:18:18;13.98;;;3.30;;
23680;SDS011;62915;50.832;4.462;2023-07-13T04:20:46;13.07;;;3.70;;
23680;SDS011;62915;50.832;4.462;2023-07-13T04:23:12;10.93;;;3.03;;
23680;SDS011;62915;50.832;4.462;2023-07-13T04:25:39;12.20;;;3.00;;
23680;SDS011;62915;50.832;4.462;2023-07-13T04:28:09;8.90;;;2.75;;
23680;SDS011;62915;50.832;4.462;2023-07-13T04:30:34;14.00;;;2.67;;
23680;SDS011;62915;50.832;4.462;2023-07-13T04:33:00;14.52;;;3.70;;
23680;SDS011;62915;50.832;4.462;2023-07-13T04:35:27;14.25;;;3.20;;
23680;SDS011;62915;50.832;4.462;2023-07-13T04:37:52;11.07;;;3.00;;
23680;SDS011;62915;50.832;4.462;2023-07-13T04:40:19;15.00;;;3.20;;
23680;SDS011;62915;50.832;4.462;2023-07-13T04:42:45;17.83;;;3.60;;
23680;SDS011;62915;50.832;4.462;2023-07-13T04:45:13;8.23;;;3.45;;
23680;SDS011;62915;50.832;4.462;2023-07-13T04:47:39;18.27;;;3.33;;
23680;SDS011;62915;50.832;4.462;2023-07-13T04:50:06;14.68;;;3.70;;
23680;SDS011;62915;50.832;4.462;2023-07-13T04:52:33;11.20;;;3.40;;
23680;SDS011;62915;50.832;4.462;2023-07-13T04:55:00;20.80;;;3.78;;
23680;SDS011;62915;50.832;4.462;2023-07-13T04:57:26;11.02;;;3.70;;
23680;SDS011;62915;50.832;4.462;2023-07-13T04:59:53;14.98;;;3.35;;
23680;SDS011;62915;50.832;4.462;2023-07-13T05:02:20;15.40;;;3.40;;
23680;SDS011;62915;50.832;4.462;2023-07-13T05:04:49;17.33;;;4.07;;
23680;SDS011;62915;50.832;4.462;2023-07-13T05:07:16;15.63;;;3.80;;
23680;SDS011;62915;50.832;4.462;2023-07-13T05:09:43;14.35;;;3.53;;
23680;SDS011;62915;50.832;4.462;2023-07-13T05:12:11;12.95;;;3.47;;
23680;SDS011;62915;50.832;4.462;2023-07-13T05:14:36;14.88;;;3.20;;
23680;SDS011;62915;50.832;4.462;2023-07-13T05:17:03;12.40;;;3.50;;
23680;SDS011;62915;50.832;4.462;2023-07-13T05:19:29;13.95;;;4.38;;
23680;SDS011;62915;50.832;4.462;2023-07-13T05:21:57;19.38;;;3.75;;
23680;SDS011;62915;50.832;4.462;2023-07-13T05:24:23;16.73;;;3.13;;
23680;SDS011;62915;50.832;4.462;2023-07-13T05:26:49;10.35;;;3.25;;
23680;SDS011;62915;50.832;4.462;2023-07-13T05:29:15;13.90;;;3.63;;
23680;SDS011;62915;50.832;4.462;2023-07-13T05:31:40;12.65;;;3.53;;
23680;SDS011;62915;50.832;4.462;2023-07-13T05:34:09;14.82;;;3.55;;
23680;SDS011;62915;50.832;4.462;2023-07-13T05:36:35;19.65;;;3.78;;
23680;SDS011;62915;50.832;4.462;2023-07-13T05:39:02;11.85;;;5.20;;
23680;SDS011;62915;50.832;4.462;2023-07-13T05:41:28;17.27;;;3.70;;
23680;SDS011;62915;50.832;4.462;2023-07-13T05:43:54;12.30;;;3.03;;
23680;SDS011;62915;50.832;4.462;2023-07-13T05:46:20;14.55;;;3.53;;
23680;SDS011;62915;50.832;4.462;2023-07-13T05:48:46;18.38;;;4.18;;
23680;SDS011;62915;50.832;4.462;2023-07-13T05:51:12;11.38;;;3.72;;
23680;SDS011;62915;50.832;4.462;2023-07-13T05:53:38;15.18;;;3.53;;
23680;SDS011;62915;50.832;4.462;2023-07-13T05:56:04;10.40;;;3.38;;
23680;SDS011;62915;50.832;4.462;2023-07-13T05:58:30;12.98;;;3.92;;
23680;SDS011;62915;50.832;4.462;2023-07-13T06:01:00;16.00;;;4.53;;
23680;SDS011;62915;50.832;4.462;2023-07-13T06:03:26;14.27;;;3.33;;
23680;SDS011;62915;50.832;4.462;2023-07-13T06:05:52;14.27;;;3.83;;
23680;SDS011;62915;50.832;4.462;2023-07-13T06:08:18;16.30;;;3.80;;
23680;SDS011;62915;50.832;4.462;2023-07-13T06:10:44;12.50;;;3.50;;
23680;SDS011;62915;50.832;4.462;2023-07-13T06:13:10;22.55;;;4.18;;
23680;SDS011;62915;50.832;4.462;2023-07-13T06:15:35;20.33;;;3.85;;
23680;SDS011;62915;50.832;4.462;2023-07-13T06:18:01;16.08;;;3.78;;
23680;SDS011;62915;50.832;4.462;2023-07-13T06:20:27;15.85;;;3.60;;
23680;SDS011;62915;50.832;4.462;2023-07-13T06:22:56;17.02;;;4.20;;
23680;SDS011;62915;50.832;4.462;2023-07-13T06:25:25;20.35;;;4.18;;
23680;SDS011;62915;50.832;4.462;2023-07-13T06:27:54;24.90;;;4.47;;
23680;SDS011;62915;50.832;4.462;2023-07-13T06:30:20;13.52;;;3.85;;
23680;SDS011;62915;50.832;4.462;2023-07-13T06:32:57;16.95;;;4.00;;
23680;SDS011;62915;50.832;4.462;2023-07-13T06:35:30;15.90;;;3.88;;
23680;SDS011;62915;50.832;4.462;2023-07-13T06:37:56;13.70;;;3.78;;
23680;SDS011;62915;50.832;4.462;2023-07-13T06:40:21;12.45;;;3.67;;
23680;SDS011;62915;50.832;4.462;2023-07-13T06:42:47;14.57;;;3.83;;
23680;SDS011;62915;50.832;4.462;2023-07-13T06:45:13;12.75;;;4.30;;
23680;SDS011;62915;50.832;4.462;2023-07-13T06:47:39;16.15;;;3.92;;
23680;SDS011;62915;50.832;4.462;2023-07-13T06:50:05;23.13;;;4.65;;
23680;SDS011;62915;50.832;4.462;2023-07-13T06:52:34;14.50;;;4.35;;
23680;SDS011;62915;50.832;4.462;2023-07-13T06:54:59;12.73;;;3.90;;
23680;SDS011;62915;50.832;4.462;2023-07-13T06:57:27;13.68;;;3.53;;
23680;SDS011;62915;50.832;4.462;2023-07-13T06:59:53;15.68;;;3.97;;
23680;SDS011;62915;50.832;4.462;2023-07-13T07:02:19;13.80;;;3.67;;
23680;SDS011;62915;50.832;4.462;2023-07-13T07:04:45;15.85;;;3.80;;
23680;SDS011;62915;50.832;4.462;2023-07-13T07:07:10;18.48;;;3.97;;
23680;SDS011;62915;50.832;4.462;2023-07-13T07:09:36;14.90;;;3.78;;
23680;SDS011;62915;50.832;4.462;2023-07-13T07:12:02;12.93;;;3.85;;
23680;SDS011;62915;50.832;4.462;2023-07-13T07:14:29;11.85;;;3.67;;
23680;SDS011;62915;50.832;4.462;2023-07-13T07:16:55;11.65;;;2.97;;
23680;SDS011;62915;50.832;4.462;2023-07-13T07:21:55;13.75;;;4.07;;
23680;SDS011;62915;50.832;4.462;2023-07-13T07:24:21;16.73;;;3.80;;
23680;SDS011;62915;50.832;4.462;2023-07-13T07:26:47;11.02;;;3.22;;
23680;SDS011;62915;50.832;4.462;2023-07-13T07:29:13;12.35;;;3.78;;
23680;SDS011;62915;50.832;4.462;2023-07-13T07:31:39;20.27;;;4.38;;
23680;SDS011;62915;50.832;4.462;2023-07-13T07:34:06;16.77;;;4.47;;
23680;SDS011;62915;50.832;4.462;2023-07-13T07:36:32;19.02;;;4.20;;
23680;SDS011;62915;50.832;4.462;2023-07-13T07:41:38;15.77;;;3.17;;
23680;SDS011;62915;50.832;4.462;2023-07-13T07:44:06;19.00;;;4.03;;
23680;SDS011;62915;50.832;4.462;2023-07-13T07:46:33;9.05;;;3.00;;
23680;SDS011;62915;50.832;4.462;2023-07-13T07:48:58;14.13;;;3.45;;
23680;SDS011;62915;50.832;4.462;2023-07-13T07:51:25;13.60;;;3.88;;
23680;SDS011;62915;50.832;4.462;2023-07-13T07:53:54;11.13;;;3.15;;
23680;SDS011;62915;50.832;4.462;2023-07-13T07:56:19;9.85;;;3.17;;
23680;SDS011;62915;50.832;4.462;2023-07-13T07:58:45;11.57;;;4.05;;
23680;SDS011;62915;50.832;4.462;2023-07-13T08:01:14;12.57;;;3.40;;
23680;SDS011;62915;50.832;4.462;2023-07-13T08:03:47;12.27;;;3.30;;
23680;SDS011;62915;50.832;4.462;2023-07-13T08:08:41;13.45;;;3.40;;
23680;SDS011;62915;50.832;4.462;2023-07-13T08:11:10;10.20;;;3.08;;
23680;SDS011;62915;50.832;4.462;2023-07-13T08:13:36;15.35;;;3.80;;
23680;SDS011;62915;50.832;4.462;2023-07-13T08:16:04;12.95;;;3.28;;
23680;SDS011;62915;50.832;4.462;2023-07-13T08:18:57;12.15;;;3.15;;
23680;SDS011;62915;50.832;4.462;2023-07-13T08:23:59;13.60;;;3.22;;
23680;SDS011;62915;50.832;4.462;2023-07-13T08:26:50;12.93;;;3.00;;
23680;SDS011;62915;50.832;4.462;2023-07-13T08:29:20;10.05;;;2.83;;
23680;SDS011;62915;50.832;4.462;2023-07-13T08:31:47;13.27;;;3.00;;
23680;SDS011;62915;50.832;4.462;2023-07-13T08:34:12;13.68;;;2.88;;
23680;SDS011;62915;50.832;4.462;2023-07-13T08:36:40;12.02;;;3.03;;
23680;SDS011;62915;50.832;4.462;2023-07-13T08:39:06;6.70;;;2.60;;
23680;SDS011;62915;50.832;4.462;2023-07-13T08:41:32;10.45;;;3.60;;
23680;SDS011;62915;50.832;4.462;2023-07-13T08:44:00;12.65;;;3.47;;
23680;SDS011;62915;50.832;4.462;2023-07-13T08:49:15;13.15;;;3.70;;
23680;SDS011;62915;50.832;4.462;2023-07-13T08:51:53;11.05;;;2.83;;
23680;SDS011;62915;50.832;4.462;2023-07-13T08:54:30;10.43;;;2.70;;
23680;SDS011;62915;50.832;4.462;2023-07-13T08:57:12;14.25;;;3.47;;
23680;SDS011;62915;50.832;4.462;2023-07-13T09:00:01;8.77;;;2.63;;
23680;SDS011;62915;50.832;4.462;2023-07-13T09:02:43;8.98;;;2.53;;
23680;SDS011;62915;50.832;4.462;2023-07-13T09:08:20;12.48;;;3.30;;
23680;SDS011;62915;50.832;4.462;2023-07-13T09:11:06;9.43;;;3.00;;
23680;SDS011;62915;50.832;4.462;2023-07-13T09:16:54;9.40;;;2.42;;
23680;SDS011;62915;50.832;4.462;2023-07-13T09:19:21;15.57;;;2.97;;
23680;SDS011;62915;50.832;4.462;2023-07-13T09:22:05;7.57;;;2.70;;
23680;SDS011;62915;50.832;4.462;2023-07-13T09:24:51;7.72;;;2.50;;
23680;SDS011;62915;50.832;4.462;2023-07-13T09:27:33;7.65;;;2.53;;
23680;SDS011;62915;50.832;4.462;2023-07-13T09:30:24;7.10;;;2.47;;
23680;SDS011;62915;50.832;4.462;2023-07-13T09:33:07;8.57;;;2.05;;
23680;SDS011;62915;50.832;4.462;2023-07-13T09:35:34;12.52;;;3.03;;
23680;SDS011;62915;50.832;4.462;2023-07-13T09:38:11;9.40;;;2.47;;
23680;SDS011;62915;50.832;4.462;2023-07-13T09:40:52;10.48;;;2.50;;
23680;SDS011;62915;50.832;4.462;2023-07-13T09:43:26;8.95;;;2.30;;
23680;SDS011;62915;50.832;4.462;2023-07-13T09:45:53;13.00;;;2.75;;
23680;SDS011;62915;50.832;4.462;2023-07-13T09:48:21;11.52;;;2.85;;
23680;SDS011;62915;50.832;4.462;2023-07-13T09:50:47;7.93;;;2.67;;
23680;SDS011;62915;50.832;4.462;2023-07-13T09:53:13;12.90;;;3.35;;
23680;SDS011;62915;50.832;4.462;2023-07-13T09:55:41;9.60;;;2.65;;
23680;SDS011;62915;50.832;4.462;2023-07-13T10:00:36;11.70;;;2.72;;
23680;SDS011;62915;50.832;4.462;2023-07-13T10:05:48;11.48;;;2.83;;
23680;SDS011;62915;50.832;4.462;2023-07-13T10:08:24;6.90;;;2.35;;
23680;SDS011;62915;50.832;4.462;2023-07-13T10:11:08;5.47;;;2.25;;
23680;SDS011;62915;50.832;4.462;2023-07-13T10:13:44;10.20;;;2.60;;
23680;SDS011;62915;50.832;4.462;2023-07-13T10:16:28;7.60;;;2.78;;
23680;SDS011;62915;50.832;4.462;2023-07-13T10:19:10;9.07;;;2.58;;
23680;SDS011;62915;50.832;4.462;2023-07-13T10:21:50;6.45;;;2.25;;
23680;SDS011;62915;50.832;4.462;2023-07-13T10:24:29;8.15;;;2.45;;
23680;SDS011;62915;50.832;4.462;2023-07-13T10:29:44;9.40;;;2.58;;
23680;SDS011;62915;50.832;4.462;2023-07-13T10:32:12;7.22;;;2.72;;
23680;SDS011;62915;50.832;4.462;2023-07-13T10:34:40;6.85;;;2.42;;
23680;SDS011;62915;50.832;4.462;2023-07-13T10:37:22;13.05;;;2.70;;
23680;SDS011;62915;50.832;4.462;2023-07-13T10:39:52;12.43;;;2.65;;
23680;SDS011;62915;50.832;4.462;2023-07-13T10:42:34;7.40;;;2.40;;
23680;SDS011;62915;50.832;4.462;2023-07-13T10:45:17;5.30;;;1.90;;
23680;SDS011;62915;50.832;4.462;2023-07-13T10:47:46;6.30;;;2.13;;
23680;SDS011;62915;50.832;4.462;2023-07-13T10:50:19;10.02;;;2.60;;
23680;SDS011;62915;50.832;4.462;2023-07-13T10:52:48;8.77;;;2.47;;
23680;SDS011;62915;50.832;4.462;2023-07-13T10:55:32;11.20;;;2.63;;
23680;SDS011;62915;50.832;4.462;2023-07-13T10:59:00;9.38;;;2.67;;
23680;SDS011;62915;50.832;4.462;2023-07-13T11:03:32;6.65;;;2.05;;
23680;SDS011;62915;50.832;4.462;2023-07-13T11:06:15;7.10;;;2.00;;
23680;SDS011;62915;50.832;4.462;2023-07-13T11:08:57;7.10;;;2.20;;
23680;SDS011;62915;50.832;4.462;2023-07-13T11:14:03;8.75;;;2.10;;
23680;SDS011;62915;50.832;4.462;2023-07-13T11:16:50;8.57;;;2.00;;
23680;SDS011;62915;50.832;4.462;2023-07-13T11:25:01;6.82;;;2.13;;
23680;SDS011;62915;50.832;4.462;2023-07-13T11:27:49;4.88;;;2.17;;
23680;SDS011;62915;50.832;4.462;2023-07-13T11:31:00;6.03;;;2.47;;
23680;SDS011;62915;50.832;4.462;2023-07-13T11:34:33;8.77;;;2.50;;
23680;SDS011;62915;50.832;4.462;2023-07-13T11:36:44;6.32;;;2.15;;
23680;SDS011;62915;50.832;4.462;2023-07-13T11:42:07;5.78;;;2.25;;
23680;SDS011;62915;50.832;4.462;2023-07-13T11:48:34;7.40;;;2.10;;
23680;SDS011;62915;50.832;4.462;2023-07-13T11:54:43;10.88;;;2.10;;
23680;SDS011;62915;50.832;4.462;2023-07-13T11:57:37;5.35;;;1.77;;
23680;SDS011;62915;50.832;4.462;2023-07-13T12:00:32;7.10;;;2.08;;
23680;SDS011;62915;50.832;4.462;2023-07-13T12:09:26;5.88;;;2.03;;
23680;SDS011;62915;50.832;4.462;2023-07-13T12:11:53;5.07;;;1.73;;
23680;SDS011;62915;50.832;4.462;2023-07-13T12:27:14;4.03;;;1.90;;
23680;SDS011;62915;50.832;4.462;2023-07-13T12:33:13;3.15;;;1.73;;
23680;SDS011;62915;50.832;4.462;2023-07-13T12:36:31;5.55;;;1.95;;
23680;SDS011;62915;50.832;4.462;2023-07-13T12:39:00;5.97;;;1.77;;
23680;SDS011;62915;50.832;4.462;2023-07-13T12:41:41;4.40;;;1.90;;
23680;SDS011;62915;50.832;4.462;2023-07-13T12:44:16;2.92;;;1.50;;
23680;SDS011;62915;50.832;4.462;2023-07-13T12:47:28;7.57;;;1.95;;
23680;SDS011;62915;50.832;4.462;2023-07-13T12:49:55;3.40;;;1.48;;
23680;SDS011;62915;50.832;4.462;2023-07-13T12:52:28;8.30;;;1.83;;
23680;SDS011;62915;50.832;4.462;2023-07-13T12:55:13;10.35;;;2.00;;
23680;SDS011;62915;50.832;4.462;2023-07-13T12:57:54;3.35;;;1.70;;
23680;SDS011;62915;50.832;4.462;2023-07-13T13:00:31;5.35;;;2.17;;
23680;SDS011;62915;50.832;4.462;2023-07-13T13:03:24;10.50;;;2.85;;
23680;SDS011;62915;50.832;4.462;2023-07-13T13:09:16;5.00;;;2.30;;
23680;SDS011;62915;50.832;4.462;2023-07-13T13:11:48;4.68;;;2.40;;
23680;SDS011;62915;50.832;4.462;2023-07-13T13:14:31;7.53;;;2.80;;
23680;SDS011;62915;50.832;4.462;2023-07-13T13:16:57;9.27;;;2.40;;
23680;SDS011;62915;50.832;4.462;2023-07-13T13:19:27;8.18;;;2.47;;
23680;SDS011;62915;50.832;4.462;2023-07-13T13:21:55;5.00;;;2.38;;
23680;SDS011;62915;50.832;4.462;2023-07-13T13:24:23;3.28;;;1.95;;
23680;SDS011;62915;50.832;4.462;2023-07-13T13:26:51;5.90;;;2.60;;
23680;SDS011;62915;50.832;4.462;2023-07-13T13:29:19;5.45;;;2.00;;
23680;SDS011;62915;50.832;4.462;2023-07-13T13:31:49;3.72;;;2.50;;
23680;SDS011;62915;50.832;4.462;2023-07-13T13:34:15;3.33;;;2.17;;
23680;SDS011;62915;50.832;4.462;2023-07-13T13:36:42;3.70;;;1.95;;
23680;SDS011;62915;50.832;4.462;2023-07-13T13:39:19;2.80;;;1.73;;
23680;SDS011;62915;50.832;4.462;2023-07-13T13:41:46;10.25;;;2.55;;
23680;SDS011;62915;50.832;4.462;2023-07-13T13:44:14;2.63;;;1.90;;
23680;SDS011;62915;50.832;4.462;2023-07-13T13:46:41;3.10;;;1.70;;
23680;SDS011;62915;50.832;4.462;2023-07-13T13:49:16;5.38;;;1.77;;
23680;SDS011;62915;50.832;4.462;2023-07-13T13:51:50;3.40;;;1.80;;
23680;SDS011;62915;50.832;4.462;2023-07-13T13:54:17;5.00;;;1.88;;
23680;SDS011;62915;50.832;4.462;2023-07-13T13:56:45;7.03;;;2.50;;
23680;SDS011;62915;50.832;4.462;2023-07-13T13:59:16;5.47;;;2.08;;
23680;SDS011;62915;50.832;4.462;2023-07-13T14:01:51;5.53;;;2.30;;
23680;SDS011;62915;50.832;4.462;2023-07-13T14:04:18;5.65;;;1.88;;
23680;SDS011;62915;50.832;4.462;2023-07-13T14:06:47;5.75;;;2.05;;
23680;SDS011;62915;50.832;4.462;2023-07-13T14:09:14;5.88;;;2.20;;
23680;SDS011;62915;50.832;4.462;2023-07-13T14:11:44;6.10;;;2.00;;
23680;SDS011;62915;50.832;4.462;2023-07-13T14:14:14;5.55;;;2.08;;
23680;SDS011;62915;50.832;4.462;2023-07-13T14:17:23;4.25;;;1.90;;
23680;SDS011;62915;50.832;4.462;2023-07-13T14:20:31;4.35;;;1.92;;
23680;SDS011;62915;50.832;4.462;2023-07-13T14:23:17;4.55;;;1.80;;
23680;SDS011;62915;50.832;4.462;2023-07-13T14:25:44;6.15;;;2.03;;
23680;SDS011;62915;50.832;4.462;2023-07-13T14:28:21;6.03;;;1.75;;
23680;SDS011;62915;50.832;4.462;2023-07-13T14:30:49;6.25;;;1.90;;
23680;SDS011;62915;50.832;4.462;2023-07-13T14:33:18;4.75;;;2.13;;
23680;SDS011;62915;50.832;4.462;2023-07-13T14:35:44;5.55;;;1.90;;
23680;SDS011;62915;50.832;4.462;2023-07-13T14:38:10;7.72;;;2.38;;
23680;SDS011;62915;50.832;4.462;2023-07-13T14:40:40;5.97;;;2.15;;
23680;SDS011;62915;50.832;4.462;2023-07-13T14:43:10;5.03;;;2.25;;
23680;SDS011;62915;50.832;4.462;2023-07-13T14:45:40;7.77;;;1.93;;
23680;SDS011;62915;50.832;4.462;2023-07-13T14:48:17;4.65;;;2.00;;
23680;SDS011;62915;50.832;4.462;2023-07-13T14:50:57;8.10;;;2.97;;
23680;SDS011;62915;50.832;4.462;2023-07-13T14:53:25;4.22;;;1.77;;
23680;SDS011;62915;50.832;4.462;2023-07-13T14:55:55;7.90;;;1.90;;
23680;SDS011;62915;50.832;4.462;2023-07-13T14:58:21;6.43;;;2.03;;
23680;SDS011;62915;50.832;4.462;2023-07-13T15:00:47;3.70;;;2.00;;
23680;SDS011;62915;50.832;4.462;2023-07-13T15:03:19;4.78;;;1.80;;
23680;SDS011;62915;50.832;4.462;2023-07-13T15:05:48;5.87;;;1.73;;
23680;SDS011;62915;50.832;4.462;2023-07-13T15:08:14;3.03;;;1.50;;
23680;SDS011;62915;50.832;4.462;2023-07-13T15:10:40;3.55;;;1.88;;
23680;SDS011;62915;50.832;4.462;2023-07-13T15:13:15;2.47;;;1.42;;
23680;SDS011;62915;50.832;4.462;2023-07-13T15:15:50;5.10;;;2.15;;
23680;SDS011;62915;50.832;4.462;2023-07-13T15:18:18;3.58;;;1.75;;
23680;SDS011;62915;50.832;4.462;2023-07-13T15:20:47;3.67;;;1.77;;
23680;SDS011;62915;50.832;4.462;2023-07-13T15:23:22;5.50;;;2.30;;
23680;SDS011;62915;50.832;4.462;2023-07-13T15:25:48;4.68;;;2.05;;
23680;SDS011;62915;50.832;4.462;2023-07-13T15:28:16;4.35;;;1.90;;
23680;SDS011;62915;50.832;4.462;2023-07-13T15:30:43;2.90;;;1.58;;
23680;SDS011;62915;50.832;4.462;2023-07-13T15:33:15;4.25;;;1.77;;
23680;SDS011;62915;50.832;4.462;2023-07-13T15:35:49;3.08;;;1.90;;
23680;SDS011;62915;50.832;4.462;2023-07-13T15:38:18;4.18;;;1.63;;
23680;SDS011;62915;50.832;4.462;2023-07-13T15:40:49;3.58;;;1.90;;
23680;SDS011;62915;50.832;4.462;2023-07-13T15:43:16;5.80;;;1.73;;
23680;SDS011;62915;50.832;4.462;2023-07-13T15:45:45;4.07;;;1.73;;
23680;SDS011;62915;50.832;4.462;2023-07-13T15:48:22;3.70;;;1.65;;
23680;SDS011;62915;50.832;4.462;2023-07-13T15:50:50;10.23;;;2.30;;
23680;SDS011;62915;50.832;4.462;2023-07-13T15:53:19;5.35;;;2.20;;
23680;SDS011;62915;50.832;4.462;2023-07-13T15:55:49;5.65;;;2.00;;
23680;SDS011;62915;50.832;4.462;2023-07-13T15:58:16;4.30;;;2.30;;
23680;SDS011;62915;50.832;4.462;2023-07-13T16:00:43;4.45;;;1.88;;
23680;SDS011;62915;50.832;4.462;2023-07-13T16:03:09;4.07;;;1.90;;
23680;SDS011;62915;50.832;4.462;2023-07-13T16:05:36;5.70;;;1.73;;
23680;SDS011;62915;50.832;4.462;2023-07-13T16:08:05;3.28;;;1.85;;
23680;SDS011;62915;50.832;4.462;2023-07-13T16:10:33;6.53;;;2.35;;
23680;SDS011;62915;50.832;4.462;2023-07-13T16:13:03;6.05;;;2.00;;
23680;SDS011;62915;50.832;4.462;2023-07-13T16:15:31;11.05;;;1.75;;